createdAt,value
2023-03-06T00:00:21.441Z,2.72
2023-03-06T00:01:25.722Z,2.73
2023-03-06T00:02:29.685Z,2.72
2023-03-06T00:03:34.491Z,2.72
2023-03-06T00:04:38.779Z,2.74
2023-03-06T00:05:42.670Z,2.74
2023-03-06T00:06:47.210Z,2.74
2023-03-06T00:07:52.182Z,2.73
2023-03-06T00:08:56.228Z,2.75
2023-03-06T00:09:59.807Z,2.73
2023-03-06T00:11:03.712Z,2.73
2023-03-06T00:12:08.649Z,2.73
2023-03-06T00:13:16.660Z,2.74
2023-03-06T00:14:20.811Z,2.75
2023-03-06T00:15:26.751Z,2.74
2023-03-06T00:16:30.854Z,2.74
2023-03-06T00:17:34.838Z,2.69
2023-03-06T00:18:38.863Z,2.72
2023-03-06T00:19:42.782Z,2.71
2023-03-06T00:20:46.561Z,2.74
2023-03-06T00:21:51.201Z,2.72
2023-03-06T00:22:57.743Z,2.74
2023-03-06T00:24:01.783Z,2.75
2023-03-06T00:25:07.672Z,2.72
2023-03-06T00:26:12.572Z,2.73
2023-03-06T00:27:16.970Z,2.72
2023-03-06T00:28:21.261Z,2.72
2023-03-06T00:29:26.576Z,2.74
2023-03-06T00:30:31.803Z,2.74
2023-03-06T00:31:39.107Z,2.73
2023-03-06T00:32:43.944Z,2.74
2023-03-06T00:33:47.878Z,2.74
2023-03-06T00:34:56.154Z,2.71
2023-03-06T00:36:07.449Z,2.71
2023-03-06T00:37:11.112Z,2.71
2023-03-06T00:38:15.029Z,2.70
2023-03-06T00:39:19.367Z,2.71
2023-03-06T00:40:27.203Z,2.66
2023-03-06T00:41:31.579Z,2.66
2023-03-06T00:42:35.406Z,2.61
2023-03-06T00:43:39.755Z,2.57
2023-03-06T00:44:47.266Z,2.55
2023-03-06T00:45:51.678Z,2.52
2023-03-06T00:46:55.405Z,2.52
2023-03-06T00:47:59.142Z,2.55
2023-03-06T00:49:03.031Z,2.46
2023-03-06T00:50:09.201Z,2.46
2023-03-06T00:51:14.025Z,2.53
2023-03-06T00:52:18.132Z,2.55
2023-03-06T00:53:21.807Z,2.53
2023-03-06T00:54:25.451Z,2.50
2023-03-06T00:55:31.232Z,2.54
2023-03-06T00:56:35.000Z,2.53
2023-03-06T00:57:39.039Z,2.56
2023-03-06T00:58:42.914Z,2.55
2023-03-06T00:59:46.786Z,2.55
2023-03-06T01:00:50.715Z,2.54
2023-03-06T01:01:55.551Z,2.52
2023-03-06T01:02:59.373Z,2.50
2023-03-06T01:04:04.642Z,2.49
2023-03-06T01:05:09.903Z,2.40
2023-03-06T01:06:13.988Z,2.43
2023-03-06T01:07:17.908Z,2.45
2023-03-06T01:08:21.905Z,2.47
2023-03-06T01:09:26.138Z,2.46
2023-03-06T01:10:30.069Z,2.48
2023-03-06T01:11:33.990Z,2.46
2023-03-06T01:12:37.802Z,2.42
2023-03-06T01:13:41.901Z,2.45
2023-03-06T01:14:45.761Z,2.46
2023-03-06T01:15:50.123Z,2.47
2023-03-06T01:16:54.217Z,2.43
2023-03-06T01:17:58.832Z,2.45
2023-03-06T01:19:03.202Z,2.42
2023-03-06T01:20:08.363Z,2.45
2023-03-06T01:21:13.245Z,2.41
2023-03-06T01:22:17.271Z,2.42
2023-03-06T01:23:21.042Z,2.41
2023-03-06T01:24:25.996Z,2.31
2023-03-06T01:25:29.804Z,2.30
2023-03-06T01:26:34.649Z,2.35
2023-03-06T01:27:38.533Z,2.29
2023-03-06T01:28:42.633Z,2.27
2023-03-06T01:29:46.671Z,2.32
2023-03-06T01:30:50.628Z,2.35
2023-03-06T01:31:54.398Z,2.35
2023-03-06T01:32:59.851Z,2.34
2023-03-06T01:34:04.085Z,2.37
2023-03-06T01:35:08.684Z,2.37
2023-03-06T01:36:13.640Z,2.37
2023-03-06T01:37:17.675Z,2.35
2023-03-06T01:38:22.203Z,2.37
2023-03-06T01:39:26.602Z,2.40
2023-03-06T01:40:35.027Z,2.39
2023-03-06T01:41:39.097Z,2.42
2023-03-06T01:42:43.380Z,2.40
2023-03-06T01:43:47.496Z,2.37
2023-03-06T01:45:17.428Z,2.44
2023-03-06T01:46:33.609Z,2.32
2023-03-06T01:47:37.419Z,2.33
2023-03-06T01:48:41.468Z,2.29
2023-03-06T01:49:45.093Z,2.28
2023-03-06T01:50:52.815Z,2.28
2023-03-06T01:52:04.093Z,2.32
2023-03-06T01:53:08.178Z,2.34
2023-03-06T01:54:28.797Z,2.37
2023-03-06T01:55:36.209Z,2.37
2023-03-06T01:56:44.531Z,2.31
2023-03-06T01:57:54.974Z,2.32
2023-03-06T01:58:59.669Z,2.33
2023-03-06T02:00:12.983Z,2.30
2023-03-06T02:01:19.365Z,2.30
2023-03-06T02:02:23.417Z,2.34
2023-03-06T02:03:30.235Z,2.34
2023-03-06T02:04:37.498Z,2.40
2023-03-06T02:05:45.002Z,2.40
2023-03-06T02:06:49.815Z,2.36
2023-03-06T02:07:54.983Z,2.39
2023-03-06T02:09:03.747Z,2.40
2023-03-06T02:10:09.568Z,2.33
2023-03-06T02:11:23.610Z,2.40
2023-03-06T02:12:28.632Z,2.38
2023-03-06T02:13:32.897Z,2.41
2023-03-06T02:14:38.532Z,2.42
2023-03-06T02:15:42.315Z,2.39
2023-03-06T02:16:46.376Z,2.43
2023-03-06T02:17:52.934Z,2.46
2023-03-06T02:19:00.549Z,2.45
2023-03-06T02:20:40.179Z,2.48
2023-03-06T02:21:43.938Z,2.49
2023-03-06T02:23:34.840Z,2.46
2023-03-06T02:24:56.908Z,2.39
2023-03-06T02:26:02.590Z,2.39
2023-03-06T02:27:08.435Z,2.43
2023-03-06T02:28:19.593Z,2.44
2023-03-06T02:29:28.390Z,2.46
2023-03-06T02:30:32.898Z,2.46
2023-03-06T02:31:36.693Z,2.33
2023-03-06T02:32:40.782Z,2.33
2023-03-06T02:33:45.129Z,2.38
2023-03-06T02:34:53.775Z,2.39
2023-03-06T02:36:14.673Z,2.38
2023-03-06T02:37:19.201Z,2.39
2023-03-06T02:38:29.405Z,2.37
2023-03-06T02:39:39.625Z,2.35
2023-03-06T02:40:47.909Z,2.31
2023-03-06T02:41:51.917Z,2.31
2023-03-06T02:42:58.401Z,2.17
2023-03-06T02:44:02.740Z,2.23
2023-03-06T02:45:13.030Z,2.27
2023-03-06T02:46:20.417Z,2.25
2023-03-06T02:47:24.113Z,2.24
2023-03-06T02:48:27.734Z,2.20
2023-03-06T02:49:31.742Z,2.18
2023-03-06T02:50:36.223Z,2.14
2023-03-06T02:51:40.020Z,2.14
2023-03-06T02:52:43.784Z,2.17
2023-03-06T02:53:47.422Z,2.15
2023-03-06T02:54:51.102Z,2.17
2023-03-06T02:55:55.121Z,2.18
2023-03-06T02:56:58.902Z,2.09
2023-03-06T02:58:04.229Z,2.13
2023-03-06T02:59:08.266Z,2.14
2023-03-06T03:00:14.351Z,2.14
2023-03-06T12:16:09.676Z,8.57
2023-03-06T12:17:27.401Z,8.63
2023-03-06T12:19:15.546Z,8.64
2023-03-06T12:20:46.382Z,8.61
2023-03-06T12:22:32.454Z,8.58
2023-03-06T12:24:10.041Z,8.63
2023-03-06T12:25:36.908Z,8.69
2023-03-06T12:27:07.873Z,8.75
2023-03-06T12:28:26.651Z,8.79
2023-03-06T12:30:36.389Z,8.76
2023-03-06T12:32:08.846Z,8.79
2023-03-06T12:33:32.295Z,8.67
2023-03-06T12:35:05.873Z,8.66
2023-03-06T12:36:30.096Z,8.63
2023-03-06T12:38:10.657Z,8.61
2023-03-06T12:39:44.917Z,8.68
2023-03-06T12:41:14.784Z,8.73
2023-03-06T12:42:49.099Z,8.76
2023-03-06T12:44:10.280Z,8.76
2023-03-06T12:45:37.566Z,8.76
2023-03-06T12:47:04.145Z,8.59
2023-03-06T12:48:22.698Z,8.48
2023-03-06T12:49:32.631Z,8.42
2023-03-06T12:50:38.990Z,8.40
2023-03-06T12:51:45.532Z,8.37
2023-03-06T12:52:52.238Z,8.44
2023-03-06T12:54:00.268Z,8.45
2023-03-06T12:55:08.642Z,8.36
2023-03-06T12:56:18.642Z,8.44
2023-03-06T12:57:26.044Z,8.45
2023-03-06T12:58:30.163Z,8.50
2023-03-06T12:59:37.916Z,8.50
2023-03-06T13:01:04.991Z,8.53
2023-03-06T13:02:25.014Z,8.42
2023-03-06T13:03:56.196Z,8.32
2023-03-06T13:05:24.935Z,8.38
2023-03-06T13:06:50.277Z,8.40
2023-03-06T13:08:11.298Z,8.48
2023-03-06T13:10:12.375Z,8.53
2023-03-06T13:11:38.086Z,8.64
2023-03-06T13:13:00.935Z,8.62
2023-03-06T13:14:54.610Z,8.55
2023-03-06T13:16:10.394Z,8.61
2023-03-06T13:17:23.849Z,8.67
2023-03-06T13:18:50.556Z,8.64
2023-03-06T13:20:35.268Z,8.70
2023-03-06T13:22:02.220Z,8.69
2023-03-06T13:23:33.482Z,8.59
2023-03-06T13:24:38.789Z,8.55
2023-03-06T13:25:51.060Z,8.52
2023-03-06T13:27:12.797Z,8.47
2023-03-06T13:28:50.335Z,8.33
2023-03-06T13:30:42.439Z,8.25
2023-03-06T13:31:47.015Z,8.12
2023-03-06T13:32:53.066Z,8.07
2023-03-06T13:34:36.375Z,8.03
2023-03-06T13:35:47.706Z,7.93
2023-03-06T13:36:52.441Z,7.88
2023-03-06T13:37:57.975Z,7.91
2023-03-06T13:39:14.121Z,7.93
2023-03-06T13:40:38.661Z,7.98
2023-03-06T13:41:59.387Z,7.92
2023-03-06T13:43:19.016Z,7.95
2023-03-06T13:44:25.615Z,7.99
2023-03-06T13:45:44.276Z,7.96
2023-03-06T13:47:00.149Z,7.94
2023-03-06T13:48:30.277Z,7.97
2023-03-06T13:49:31.716Z,7.93
2023-03-06T13:50:47.883Z,8.00
2023-03-06T13:51:54.609Z,8.00
2023-03-06T13:53:46.173Z,8.08
2023-03-06T13:55:30.638Z,8.09
2023-03-06T13:57:08.252Z,8.13
2023-03-06T13:58:37.307Z,8.15
2023-03-06T14:00:16.676Z,8.13
2023-03-06T14:01:58.285Z,7.97
2023-03-06T14:04:00.323Z,7.82
2023-03-06T14:05:15.668Z,7.56
2023-03-06T14:06:52.733Z,7.47
2023-03-06T14:08:13.317Z,7.45
2023-03-06T14:09:42.621Z,7.32
2023-03-06T14:11:19.429Z,7.26
2023-03-06T14:12:34.178Z,7.15
2023-03-06T14:13:50.994Z,7.12
2023-03-06T14:15:17.552Z,7.15
2023-03-06T14:16:49.057Z,7.07
2023-03-06T14:18:01.725Z,6.95
2023-03-06T14:19:08.686Z,6.88
2023-03-06T14:20:22.094Z,6.94
2023-03-06T14:21:42.480Z,6.83
2023-03-06T14:22:46.490Z,6.84
2023-03-06T14:24:03.162Z,6.77
2023-03-06T14:25:31.921Z,6.70
2023-03-06T14:26:50.056Z,6.68
2023-03-06T14:27:58.172Z,6.69
2023-03-06T14:29:06.095Z,6.69
2023-03-06T14:30:21.340Z,6.60
2023-03-06T14:31:37.807Z,6.60
2023-03-06T14:32:43.748Z,6.55
2023-03-06T14:33:58.740Z,6.51
2023-03-06T14:35:02.957Z,6.52
2023-03-06T14:36:14.657Z,6.53
2023-03-06T14:37:25.343Z,6.38
2023-03-06T14:38:42.909Z,6.33
2023-03-06T14:39:47.038Z,6.38
2023-03-06T14:40:52.533Z,6.41
2023-03-06T14:42:25.342Z,6.48
2023-03-06T14:43:29.132Z,6.39
2023-03-06T14:44:33.433Z,6.44
2023-03-06T14:45:37.386Z,6.50
2023-03-06T14:46:41.347Z,6.54
2023-03-06T14:47:53.382Z,6.60
2023-03-06T14:49:00.239Z,6.65
2023-03-06T14:50:29.756Z,6.70
2023-03-06T14:51:46.358Z,6.70
2023-03-06T14:53:18.356Z,6.63
2023-03-06T14:54:34.959Z,6.63
2023-03-06T14:55:45.115Z,6.67
2023-03-06T14:56:54.863Z,6.60
2023-03-06T14:58:24.856Z,6.63
2023-03-06T14:59:39.331Z,6.71
2023-03-06T15:00:50.133Z,6.77
2023-03-06T15:02:06.071Z,6.82
2023-03-06T15:03:28.016Z,6.85
2023-03-06T15:05:12.397Z,6.86
2023-03-06T15:06:25.863Z,6.84
2023-03-06T15:07:33.563Z,6.89
2023-03-06T15:08:40.643Z,6.95
2023-03-06T15:09:49.808Z,6.97
2023-03-06T15:11:20.329Z,7.00
2023-03-06T15:12:24.589Z,6.95
2023-03-06T15:13:32.846Z,6.97
2023-03-06T15:14:42.979Z,6.99
2023-03-06T15:16:11.753Z,6.94
2023-03-06T15:17:19.183Z,6.88
2023-03-06T15:19:01.935Z,6.89
2023-03-06T15:20:28.168Z,6.88
2023-03-06T15:21:39.273Z,6.87
2023-03-06T15:22:44.219Z,6.90
2023-03-06T15:23:53.920Z,6.90
2023-03-06T15:25:21.727Z,6.91
2023-03-06T15:26:37.386Z,6.90
2023-03-06T15:27:47.934Z,6.85
2023-03-06T15:29:09.469Z,6.78
2023-03-06T15:30:41.222Z,6.77
2023-03-06T15:31:46.537Z,6.78
2023-03-06T15:32:51.662Z,6.83
2023-03-06T15:34:20.279Z,6.77
2023-03-06T15:35:37.362Z,6.70
2023-03-06T15:36:58.953Z,6.72
2023-03-06T15:38:04.834Z,6.72
2023-03-06T15:39:41.188Z,6.69
2023-03-06T15:40:59.014Z,6.70
2023-03-06T15:42:26.629Z,6.75
2023-03-06T15:43:40.200Z,6.76
2023-03-06T15:44:56.404Z,6.73
2023-03-06T15:46:05.163Z,6.76
2023-03-06T15:47:14.665Z,6.74
2023-03-06T15:48:19.413Z,6.70
2023-03-06T15:49:23.557Z,6.67
2023-03-06T15:50:29.499Z,6.68
2023-03-06T15:51:34.108Z,6.62
2023-03-06T15:52:37.897Z,6.59
2023-03-06T15:53:43.904Z,6.61
2023-03-06T15:54:47.963Z,6.59
2023-03-06T15:55:53.888Z,6.63
2023-03-06T15:56:57.777Z,6.66
2023-03-06T15:58:03.721Z,6.62
2023-03-06T15:59:33.206Z,6.58
2023-03-06T16:00:41.001Z,6.57
2023-03-06T16:01:45.593Z,6.54
2023-03-06T16:02:49.203Z,6.56
2023-03-06T16:03:53.275Z,6.59
2023-03-06T16:04:57.447Z,6.63
2023-03-06T16:06:01.249Z,6.62
2023-03-06T16:07:06.046Z,6.60
2023-03-06T16:08:15.107Z,6.63
2023-03-06T16:09:18.884Z,6.66
2023-03-06T16:10:27.682Z,6.69
2023-03-06T16:11:43.749Z,6.70
2023-03-06T16:13:03.183Z,6.66
2023-03-06T16:14:23.884Z,6.63
2023-03-06T16:15:29.890Z,6.60
2023-03-06T16:16:39.688Z,6.60
2023-03-06T16:17:43.819Z,6.61
2023-03-06T16:18:47.897Z,6.58
2023-03-06T16:19:52.137Z,6.57
2023-03-06T16:20:55.985Z,6.57
2023-03-06T16:22:00.169Z,6.50
2023-03-06T16:23:11.617Z,6.57
2023-03-06T16:24:35.714Z,6.53
2023-03-06T16:25:47.528Z,6.54
2023-03-06T16:26:56.365Z,6.52
2023-03-06T16:28:00.257Z,6.56
2023-03-06T16:29:04.675Z,6.53
2023-03-06T16:30:20.589Z,6.49
2023-03-06T16:31:24.757Z,6.50
2023-03-06T16:32:28.893Z,6.49
2023-03-06T16:33:32.609Z,6.54
2023-03-06T16:34:36.165Z,6.57
2023-03-06T16:35:41.367Z,6.57
2023-03-06T16:36:45.629Z,6.57
2023-03-06T16:37:49.870Z,6.52
2023-03-06T16:38:54.239Z,6.56
2023-03-06T16:39:58.044Z,6.53
2023-03-06T16:41:02.053Z,6.54
2023-03-06T16:42:13.000Z,6.47
2023-03-06T16:43:17.405Z,6.47
2023-03-06T16:44:21.816Z,6.52
2023-03-06T16:45:28.494Z,6.53
2023-03-06T16:46:41.692Z,6.47
2023-03-06T16:47:48.837Z,6.42
2023-03-06T16:48:53.340Z,6.46
2023-03-06T16:50:02.049Z,6.43
2023-03-06T16:51:16.145Z,6.47
2023-03-06T16:52:20.252Z,6.45
2023-03-06T16:53:24.081Z,6.47
2023-03-06T16:54:27.759Z,6.49
2023-03-06T16:55:32.548Z,6.50
2023-03-06T16:56:36.236Z,6.51
2023-03-06T16:57:40.680Z,6.52
2023-03-06T16:58:45.131Z,6.51
2023-03-06T16:59:49.642Z,6.48
2023-03-06T17:00:54.739Z,6.47
2023-03-06T17:01:58.606Z,6.46
2023-03-06T17:03:02.988Z,6.50
2023-03-06T17:04:08.072Z,6.50
2023-03-06T17:05:13.334Z,6.47
2023-03-06T17:06:21.348Z,6.46
2023-03-06T17:07:25.336Z,6.46
2023-03-06T17:08:30.056Z,6.42
2023-03-06T17:09:33.580Z,6.28
2023-03-06T17:10:42.100Z,6.24
2023-03-06T17:11:46.976Z,6.20
2023-03-06T17:12:53.034Z,6.25
2023-03-06T17:13:56.920Z,6.25
2023-03-06T17:15:00.961Z,6.26
2023-03-06T17:16:08.615Z,6.18
2023-03-06T17:17:12.531Z,6.08
2023-03-06T17:18:16.197Z,6.08
2023-03-06T17:19:21.057Z,6.12
2023-03-06T17:20:24.800Z,6.07
2023-03-06T17:21:30.571Z,6.03
2023-03-06T17:22:36.468Z,6.03
2023-03-06T17:23:41.018Z,5.95
2023-03-06T17:24:52.290Z,5.91
2023-03-06T17:26:15.789Z,5.97
2023-03-06T17:27:22.713Z,5.93
2023-03-06T17:28:28.334Z,5.89
2023-03-06T17:29:32.854Z,5.90
2023-03-06T17:30:37.077Z,5.94
2023-03-06T17:31:41.717Z,5.94
2023-03-06T17:32:45.880Z,5.90
2023-03-06T17:33:54.418Z,5.87
2023-03-06T17:34:59.215Z,5.88
2023-03-06T17:36:03.120Z,5.89
2023-03-06T17:37:11.561Z,5.87
2023-03-06T17:38:19.640Z,5.86
2023-03-06T17:39:24.030Z,5.87
2023-03-06T17:40:28.182Z,5.86
2023-03-06T17:41:34.178Z,5.74
2023-03-06T17:42:38.018Z,5.79
2023-03-06T17:43:42.277Z,5.82
2023-03-06T17:44:46.135Z,5.75
2023-03-06T17:45:50.077Z,5.74
2023-03-06T17:46:54.046Z,5.75
2023-03-06T17:48:00.545Z,5.71
2023-03-06T17:49:04.991Z,5.61
2023-03-06T17:50:09.982Z,5.63
2023-03-06T17:51:14.139Z,5.60
2023-03-06T17:52:17.867Z,5.53
2023-03-06T17:53:23.651Z,5.58
2023-03-06T17:54:30.347Z,5.65
2023-03-06T17:55:34.179Z,5.61
2023-03-06T17:56:38.407Z,5.58
2023-03-06T17:57:42.273Z,5.62
2023-03-06T17:58:45.858Z,5.66
2023-03-06T17:59:49.910Z,5.67
2023-03-06T18:00:54.374Z,5.61
2023-03-06T18:01:59.586Z,5.65
2023-03-06T18:03:03.939Z,5.62
2023-03-06T18:04:07.865Z,5.60
2023-03-06T18:05:12.633Z,5.60
2023-03-06T18:06:18.329Z,5.58
2023-03-06T18:07:22.427Z,5.60
2023-03-06T18:08:27.643Z,5.53
2023-03-06T18:09:32.489Z,5.47
2023-03-06T18:10:43.559Z,5.50
2023-03-06T18:11:47.150Z,5.46
2023-03-06T18:12:51.288Z,5.52
2023-03-06T18:13:55.426Z,5.48
2023-03-06T18:14:59.490Z,5.49
2023-03-06T18:16:03.991Z,5.38
2023-03-06T18:17:08.322Z,5.41
2023-03-06T18:18:11.923Z,5.44
2023-03-06T18:19:16.602Z,5.37
2023-03-06T18:20:20.819Z,5.42
2023-03-06T18:21:25.679Z,5.43
2023-03-06T18:22:29.393Z,5.41
2023-03-06T18:23:33.372Z,5.39
2023-03-06T18:24:37.617Z,5.42
2023-03-06T18:25:41.690Z,5.42
2023-03-06T18:26:45.911Z,5.46
2023-03-06T18:27:49.768Z,5.43
2023-03-06T18:29:06.760Z,5.45
2023-03-06T18:30:11.818Z,5.41
2023-03-06T18:31:25.492Z,5.41
2023-03-06T18:32:29.404Z,5.42
2023-03-06T18:33:33.206Z,5.42
2023-03-06T18:34:37.356Z,5.40
2023-03-06T18:35:44.339Z,5.36
2023-03-06T18:36:52.763Z,5.39
2023-03-06T18:37:56.590Z,5.37
2023-03-06T18:39:04.313Z,5.36
2023-03-06T18:40:11.262Z,5.35
2023-03-06T18:41:24.805Z,5.35
2023-03-06T18:42:28.883Z,5.31
2023-03-06T18:43:32.605Z,5.31
2023-03-06T18:44:36.509Z,5.31
2023-03-06T18:45:44.363Z,5.33
2023-03-06T18:46:48.897Z,5.37
2023-03-06T18:47:55.383Z,5.33
2023-03-06T18:49:00.137Z,5.33
2023-03-06T18:50:10.493Z,5.34
2023-03-06T18:51:16.592Z,5.35
2023-03-06T18:52:20.657Z,5.32
2023-03-06T18:53:24.471Z,5.28
2023-03-06T18:54:29.929Z,5.29
2023-03-06T18:55:36.358Z,5.24
2023-03-06T18:56:44.491Z,5.26
2023-03-06T18:57:48.104Z,5.28
2023-03-06T18:59:04.833Z,5.26
2023-03-06T19:00:10.539Z,5.27
2023-03-06T19:01:17.427Z,5.26
2023-03-06T19:02:21.436Z,5.23
2023-03-06T19:03:25.407Z,5.24
2023-03-06T19:04:29.094Z,5.18
2023-03-06T19:05:43.170Z,5.18
2023-03-06T19:06:47.273Z,5.17
2023-03-06T19:07:51.477Z,5.16
2023-03-06T19:09:04.110Z,5.15
2023-03-06T19:10:09.820Z,5.11
2023-03-06T19:11:18.338Z,5.10
2023-03-06T19:12:23.064Z,5.14
2023-03-06T19:13:29.351Z,5.14
2023-03-06T19:14:36.494Z,5.17
2023-03-06T19:15:46.666Z,5.16
2023-03-06T19:16:51.024Z,5.17
2023-03-06T19:17:55.801Z,5.17
2023-03-06T19:19:02.940Z,5.13
2023-03-06T19:20:08.359Z,5.15
2023-03-06T19:21:20.037Z,5.16
2023-03-06T19:22:24.260Z,5.17
2023-03-06T19:23:28.123Z,5.17
2023-03-06T19:24:35.103Z,5.17
2023-03-06T19:25:43.325Z,5.17
2023-03-06T19:26:52.582Z,5.16
2023-03-06T19:28:00.280Z,5.16
2023-03-06T19:29:11.899Z,5.17
2023-03-06T19:30:17.356Z,5.18
2023-03-06T19:31:27.581Z,5.19
2023-03-06T19:32:34.336Z,5.21
2023-03-06T19:33:46.050Z,5.21
2023-03-06T19:34:50.855Z,5.18
2023-03-06T19:35:56.233Z,5.20
2023-03-06T19:37:04.656Z,5.22
2023-03-06T19:38:10.601Z,5.21
2023-03-06T19:39:20.547Z,5.21
2023-03-06T19:40:31.750Z,5.23
2023-03-06T19:41:35.915Z,5.21
2023-03-06T19:42:43.062Z,5.22
2023-03-06T19:43:53.115Z,5.25
2023-03-06T19:44:58.695Z,5.25
2023-03-06T19:46:03.806Z,5.25
2023-03-06T19:47:07.854Z,5.26
2023-03-06T19:48:13.730Z,5.24
2023-03-06T19:49:22.371Z,5.25
2023-03-06T19:50:30.900Z,5.26
2023-03-06T19:51:35.140Z,5.23
2023-03-06T19:52:39.236Z,5.23
2023-03-06T19:53:44.820Z,5.26
2023-03-06T19:54:49.055Z,5.25
2023-03-06T19:55:53.303Z,5.25
2023-03-06T19:56:57.916Z,5.29
2023-03-06T19:58:04.513Z,5.28
2023-03-06T19:59:09.227Z,5.23
2023-03-06T20:00:17.959Z,5.26
2023-03-06T20:01:37.781Z,5.26
2023-03-06T20:02:45.030Z,5.26
2023-03-06T20:03:51.040Z,5.27
2023-03-06T20:04:55.590Z,5.25
2023-03-06T20:05:59.445Z,5.24
2023-03-06T20:07:05.487Z,5.22
2023-03-06T20:08:11.194Z,5.20
2023-03-06T20:09:14.901Z,5.18
2023-03-06T20:10:19.495Z,5.16
2023-03-06T20:11:31.577Z,5.16
2023-03-06T20:12:36.234Z,5.16
2023-03-06T20:13:46.929Z,5.16
2023-03-06T20:14:51.642Z,5.15
2023-03-06T20:15:56.304Z,5.13
2023-03-06T20:17:00.059Z,5.13
2023-03-06T20:18:06.404Z,5.15
2023-03-06T20:19:14.407Z,5.15
2023-03-06T20:20:19.272Z,5.16
2023-03-06T20:21:23.538Z,5.15
2023-03-06T20:22:30.832Z,5.16
2023-03-06T20:23:35.208Z,5.15
2023-03-06T20:24:39.165Z,5.15
2023-03-06T20:25:43.120Z,5.15
2023-03-06T20:26:52.673Z,5.15
2023-03-06T20:27:56.428Z,5.14
2023-03-06T20:29:01.161Z,5.14
2023-03-06T20:30:09.786Z,5.16
2023-03-06T20:31:18.128Z,5.15
2023-03-06T20:32:22.694Z,5.14
2023-03-06T20:33:27.447Z,5.15
2023-03-06T20:34:31.331Z,5.16
2023-03-06T20:35:39.679Z,5.16
2023-03-06T20:36:43.431Z,5.18
2023-03-06T20:37:48.487Z,5.18
2023-03-06T20:38:52.207Z,5.17
2023-03-06T20:39:56.364Z,5.16
2023-03-06T20:41:00.130Z,5.14
2023-03-06T20:42:07.025Z,5.12
2023-03-06T20:43:11.107Z,5.15
2023-03-06T20:44:19.682Z,5.14
2023-03-06T20:45:24.987Z,5.10
2023-03-06T20:46:29.939Z,5.09
2023-03-06T20:47:33.925Z,5.07
2023-03-06T20:48:39.025Z,5.05
2023-03-06T20:49:43.081Z,5.04
2023-03-06T20:50:47.449Z,5.08
2023-03-06T20:51:51.484Z,5.07
2023-03-06T20:52:58.524Z,5.05
2023-03-06T20:54:03.399Z,5.05
2023-03-06T20:55:08.788Z,5.01
2023-03-06T20:56:19.402Z,5.03
2023-03-06T20:57:23.685Z,5.01
2023-03-06T20:58:30.235Z,5.01
2023-03-06T20:59:33.999Z,5.00
2023-03-06T21:00:39.203Z,5.01
2023-03-06T21:01:45.889Z,5.01
2023-03-06T21:02:49.900Z,4.98
2023-03-06T21:03:54.796Z,5.01
2023-03-06T21:05:01.003Z,4.98
2023-03-06T21:06:07.519Z,4.99
2023-03-06T21:07:16.063Z,4.99
2023-03-06T21:08:23.650Z,4.96
2023-03-06T21:09:27.352Z,4.94
2023-03-06T21:10:31.295Z,4.92
2023-03-06T21:11:35.813Z,4.90
2023-03-06T21:12:40.124Z,4.92
2023-03-06T21:13:44.012Z,4.91
2023-03-06T21:14:47.588Z,4.89
2023-03-06T21:15:51.362Z,4.87
2023-03-06T21:16:55.160Z,4.88
2023-03-06T21:17:59.352Z,4.87
2023-03-06T21:19:03.898Z,4.86
2023-03-06T21:20:11.244Z,4.84
2023-03-06T21:21:22.085Z,4.82
2023-03-06T21:22:26.877Z,4.82
2023-03-06T21:23:31.915Z,4.82
2023-03-06T21:24:36.827Z,4.80
2023-03-06T21:25:52.141Z,4.80
2023-03-06T21:26:56.470Z,4.78
2023-03-06T21:28:00.554Z,4.79
2023-03-06T21:29:05.066Z,4.76
2023-03-06T21:30:10.155Z,4.76
2023-03-06T21:31:18.287Z,4.77
2023-03-06T21:32:23.172Z,4.75
2023-03-06T21:33:29.621Z,4.75
2023-03-06T21:34:33.361Z,4.74
2023-03-06T21:35:45.726Z,4.72
2023-03-06T21:36:53.030Z,4.74
2023-03-06T21:37:56.856Z,4.73
2023-03-06T21:39:00.919Z,4.71
2023-03-06T21:40:08.239Z,4.69
2023-03-06T21:41:24.892Z,4.68
2023-03-06T21:42:29.521Z,4.67
2023-03-06T21:43:33.277Z,4.68
2023-03-06T21:44:37.164Z,4.67
2023-03-06T21:45:46.645Z,4.65
2023-03-06T21:46:50.293Z,4.65
2023-03-06T21:47:54.202Z,4.64
2023-03-06T21:48:59.045Z,4.64
2023-03-06T21:50:03.391Z,4.62
2023-03-06T21:51:15.864Z,4.60
2023-03-06T21:52:19.923Z,4.61
2023-03-06T21:53:23.463Z,4.59
2023-03-06T21:54:29.461Z,4.59
2023-03-06T21:55:33.367Z,4.57
2023-03-06T21:56:37.548Z,4.55
2023-03-06T21:57:41.463Z,4.54
2023-03-06T21:58:48.757Z,4.54
2023-03-06T21:59:52.742Z,4.52
2023-03-06T22:00:57.329Z,4.54
2023-03-06T22:02:01.725Z,4.50
2023-03-06T22:03:06.806Z,4.51
2023-03-06T22:04:10.460Z,4.49
2023-03-06T22:05:15.045Z,4.48
2023-03-06T22:06:23.624Z,4.47
2023-03-06T22:07:28.932Z,4.50
2023-03-06T22:08:32.484Z,4.49
2023-03-06T22:09:37.544Z,4.45
2023-03-06T22:10:42.078Z,4.44
2023-03-06T22:11:46.444Z,4.46
2023-03-06T22:12:50.225Z,4.48
2023-03-06T22:13:54.129Z,4.46
2023-03-06T22:14:58.494Z,4.43
2023-03-06T22:16:02.318Z,4.42
2023-03-06T22:17:06.112Z,4.42
2023-03-06T22:18:15.971Z,4.38
2023-03-06T22:19:20.163Z,4.34
2023-03-06T22:20:23.795Z,4.36
2023-03-06T22:21:27.752Z,4.34
2023-03-06T22:22:33.108Z,4.35
2023-03-06T22:23:37.799Z,4.32
2023-03-06T22:24:41.423Z,4.33
2023-03-06T22:25:45.127Z,4.31
2023-03-06T22:26:48.890Z,4.30
2023-03-06T22:27:52.847Z,4.31
2023-03-06T22:28:57.307Z,4.29
2023-03-06T22:30:00.963Z,4.28
2023-03-06T22:31:18.220Z,4.24
2023-03-06T22:32:22.202Z,4.23
2023-03-06T22:33:26.265Z,4.22
2023-03-06T22:34:30.201Z,4.22
2023-03-06T22:35:34.385Z,4.20
2023-03-06T22:36:38.872Z,4.15
2023-03-06T22:37:42.607Z,4.17
2023-03-06T22:38:48.661Z,4.17
2023-03-06T22:39:52.395Z,4.12
2023-03-06T22:40:59.472Z,4.12
2023-03-06T22:42:03.285Z,4.11
2023-03-06T22:43:07.117Z,4.09
2023-03-06T22:44:18.225Z,4.09
2023-03-06T22:45:22.467Z,4.06
2023-03-06T22:46:27.906Z,4.04
2023-03-06T22:47:31.666Z,4.02
2023-03-06T22:48:35.792Z,4.01
2023-03-06T22:49:40.533Z,3.99
2023-03-06T22:50:44.375Z,3.97
2023-03-06T22:51:48.192Z,3.93
2023-03-06T22:52:51.935Z,3.92
2023-03-06T22:53:55.880Z,3.92
2023-03-06T22:54:59.987Z,3.93
2023-03-06T22:56:11.100Z,3.91
2023-03-06T22:57:14.889Z,3.91
2023-03-06T22:58:19.082Z,3.92
2023-03-06T22:59:22.727Z,3.91
2023-03-06T23:00:26.543Z,3.88
2023-03-06T23:01:35.793Z,3.90
2023-03-06T23:02:39.432Z,3.88
2023-03-06T23:03:51.539Z,3.89
2023-03-06T23:04:55.250Z,3.91
2023-03-06T23:06:02.606Z,3.91
2023-03-06T23:07:06.819Z,3.91
2023-03-06T23:08:10.774Z,3.92
2023-03-06T23:09:21.118Z,3.94
2023-03-06T23:10:27.725Z,3.93
2023-03-06T23:11:32.781Z,3.94
2023-03-06T23:12:37.356Z,3.94
2023-03-06T23:13:41.250Z,3.93
2023-03-06T23:14:49.669Z,3.96
2023-03-06T23:15:53.470Z,3.97
2023-03-06T23:16:57.870Z,3.98
2023-03-06T23:18:01.663Z,4.00
2023-03-06T23:19:06.234Z,4.02
2023-03-06T23:20:11.875Z,4.02
2023-03-06T23:21:18.380Z,4.02
2023-03-06T23:22:22.787Z,4.04
2023-03-06T23:23:27.329Z,4.06
2023-03-06T23:24:32.177Z,4.06
2023-03-06T23:25:36.523Z,4.07
2023-03-06T23:26:40.902Z,4.09
2023-03-06T23:27:44.920Z,4.08
2023-03-06T23:28:49.096Z,4.09
2023-03-06T23:29:55.824Z,4.10
2023-03-06T23:30:59.967Z,4.10
2023-03-06T23:32:04.592Z,4.09
2023-03-06T23:33:09.795Z,4.05
2023-03-06T23:34:13.380Z,4.07
2023-03-06T23:35:17.186Z,4.04
2023-03-06T23:36:21.043Z,4.05
2023-03-06T23:37:24.935Z,4.06
2023-03-06T23:38:30.367Z,4.05
2023-03-06T23:39:34.132Z,4.04
2023-03-06T23:40:38.799Z,4.04
2023-03-06T23:41:43.251Z,4.03
2023-03-06T23:42:46.855Z,4.00
2023-03-06T23:43:54.643Z,4.01
2023-03-06T23:45:00.443Z,3.98
2023-03-06T23:46:07.377Z,3.98
2023-03-06T23:47:11.349Z,3.96
2023-03-06T23:48:15.053Z,3.97
2023-03-06T23:49:21.043Z,3.96
2023-03-06T23:50:26.486Z,3.95
2023-03-06T23:51:30.142Z,3.90
2023-03-06T23:52:34.229Z,3.91
2023-03-06T23:53:38.313Z,3.92
2023-03-06T23:54:42.463Z,3.88
2023-03-06T23:55:49.451Z,3.87
2023-03-06T23:56:53.147Z,3.85
2023-03-06T23:57:56.988Z,3.85
2023-03-06T23:59:00.674Z,3.82
